sensor_id;sensor_type;location;lat;lon;timestamp;P1;durP1;ratioP1;P2;durP2;ratioP2
76708;SDS011;74360;44.410;0.216;2024-01-15T00:05:13;49.57;;;29.83;;
76708;SDS011;74360;44.410;0.216;2024-01-15T00:10:44;47.73;;;26.37;;
76708;SDS011;74360;44.410;0.216;2024-01-15T00:16:18;46.43;;;27.03;;
76708;SDS011;74360;44.410;0.216;2024-01-15T00:21:51;48.50;;;26.20;;
76708;SDS011;74360;44.410;0.216;2024-01-15T00:27:25;50.27;;;28.50;;
76708;SDS011;74360;44.410;0.216;2024-01-15T00:32:58;52.37;;;31.53;;
76708;SDS011;74360;44.410;0.216;2024-01-15T00:38:30;49.83;;;27.73;;
76708;SDS011;74360;44.410;0.216;2024-01-15T00:44:04;48.77;;;28.33;;
76708;SDS011;74360;44.410;0.216;2024-01-15T00:49:37;52.03;;;28.97;;
76708;SDS011;74360;44.410;0.216;2024-01-15T00:55:09;49.63;;;29.20;;
76708;SDS011;74360;44.410;0.216;2024-01-15T01:00:42;51.70;;;29.10;;
76708;SDS011;74360;44.410;0.216;2024-01-15T01:06:16;51.50;;;29.17;;
76708;SDS011;74360;44.410;0.216;2024-01-15T01:11:46;46.60;;;27.77;;
76708;SDS011;74360;44.410;0.216;2024-01-15T01:17:21;47.07;;;27.10;;
76708;SDS011;74360;44.410;0.216;2024-01-15T01:22:54;44.73;;;26.47;;
76708;SDS011;74360;44.410;0.216;2024-01-15T01:28:28;46.50;;;27.33;;
76708;SDS011;74360;44.410;0.216;2024-01-15T01:33:59;47.43;;;27.60;;
76708;SDS011;74360;44.410;0.216;2024-01-15T01:39:31;47.80;;;28.43;;
76708;SDS011;74360;44.410;0.216;2024-01-15T01:45:06;50.93;;;29.37;;
76708;SDS011;74360;44.410;0.216;2024-01-15T01:50:39;47.53;;;28.93;;
76708;SDS011;74360;44.410;0.216;2024-01-15T01:56:12;46.57;;;27.77;;
76708;SDS011;74360;44.410;0.216;2024-01-15T02:01:46;45.17;;;29.63;;
76708;SDS011;74360;44.410;0.216;2024-01-15T02:07:19;46.93;;;28.50;;
76708;SDS011;74360;44.410;0.216;2024-01-15T02:12:53;44.27;;;27.67;;
76708;SDS011;74360;44.410;0.216;2024-01-15T02:18:22;47.63;;;26.83;;
76708;SDS011;74360;44.410;0.216;2024-01-15T02:23:56;35.47;;;21.43;;
76708;SDS011;74360;44.410;0.216;2024-01-15T02:29:29;49.00;;;27.20;;
76708;SDS011;74360;44.410;0.216;2024-01-15T02:35:00;45.70;;;28.53;;
76708;SDS011;74360;44.410;0.216;2024-01-15T02:40:31;44.40;;;27.97;;
76708;SDS011;74360;44.410;0.216;2024-01-15T02:51:40;46.20;;;28.00;;
76708;SDS011;74360;44.410;0.216;2024-01-15T02:57:11;52.20;;;31.10;;
76708;SDS011;74360;44.410;0.216;2024-01-15T03:02:44;50.90;;;31.17;;
76708;SDS011;74360;44.410;0.216;2024-01-15T03:08:16;55.83;;;32.50;;
76708;SDS011;74360;44.410;0.216;2024-01-15T03:13:46;59.17;;;34.20;;
76708;SDS011;74360;44.410;0.216;2024-01-15T03:19:22;65.83;;;36.27;;
76708;SDS011;74360;44.410;0.216;2024-01-15T03:24:53;56.63;;;31.60;;
76708;SDS011;74360;44.410;0.216;2024-01-15T03:30:26;54.03;;;32.67;;
76708;SDS011;74360;44.410;0.216;2024-01-15T03:35:59;94.03;;;40.60;;
76708;SDS011;74360;44.410;0.216;2024-01-15T03:41:31;69.97;;;35.90;;
76708;SDS011;74360;44.410;0.216;2024-01-15T03:47:02;69.60;;;34.90;;
76708;SDS011;74360;44.410;0.216;2024-01-15T03:52:36;57.07;;;33.93;;
76708;SDS011;74360;44.410;0.216;2024-01-15T03:58:07;52.70;;;30.90;;
76708;SDS011;74360;44.410;0.216;2024-01-15T04:03:41;52.40;;;30.70;;
76708;SDS011;74360;44.410;0.216;2024-01-15T04:09:15;51.27;;;30.37;;
76708;SDS011;74360;44.410;0.216;2024-01-15T04:14:45;51.23;;;30.13;;
76708;SDS011;74360;44.410;0.216;2024-01-15T04:20:18;50.23;;;30.70;;
76708;SDS011;74360;44.410;0.216;2024-01-15T04:25:51;55.93;;;31.80;;
76708;SDS011;74360;44.410;0.216;2024-01-15T04:31:24;54.00;;;30.73;;
76708;SDS011;74360;44.410;0.216;2024-01-15T04:36:56;53.20;;;29.40;;
76708;SDS011;74360;44.410;0.216;2024-01-15T04:42:29;53.40;;;31.20;;
76708;SDS011;74360;44.410;0.216;2024-01-15T04:48:01;56.33;;;30.87;;
76708;SDS011;74360;44.410;0.216;2024-01-15T04:53:34;52.37;;;30.20;;
76708;SDS011;74360;44.410;0.216;2024-01-15T04:59:06;52.03;;;28.03;;
76708;SDS011;74360;44.410;0.216;2024-01-15T05:04:40;44.83;;;26.47;;
76708;SDS011;74360;44.410;0.216;2024-01-15T05:10:13;51.20;;;28.10;;
76708;SDS011;74360;44.410;0.216;2024-01-15T05:15:47;46.83;;;27.10;;
76708;SDS011;74360;44.410;0.216;2024-01-15T05:21:19;50.63;;;27.37;;
76708;SDS011;74360;44.410;0.216;2024-01-15T05:26:52;44.33;;;25.27;;
76708;SDS011;74360;44.410;0.216;2024-01-15T05:32:24;45.13;;;26.33;;
76708;SDS011;74360;44.410;0.216;2024-01-15T05:37:56;47.87;;;25.53;;
76708;SDS011;74360;44.410;0.216;2024-01-15T05:43:29;46.67;;;25.53;;
76708;SDS011;74360;44.410;0.216;2024-01-15T05:49:01;49.43;;;26.73;;
76708;SDS011;74360;44.410;0.216;2024-01-15T05:54:33;45.40;;;25.60;;
76708;SDS011;74360;44.410;0.216;2024-01-15T06:00:06;43.73;;;25.80;;
76708;SDS011;74360;44.410;0.216;2024-01-15T06:05:39;50.60;;;29.00;;
76708;SDS011;74360;44.410;0.216;2024-01-15T06:11:12;48.03;;;27.80;;
76708;SDS011;74360;44.410;0.216;2024-01-15T06:16:44;59.20;;;35.20;;
76708;SDS011;74360;44.410;0.216;2024-01-15T06:22:18;53.13;;;30.33;;
76708;SDS011;74360;44.410;0.216;2024-01-15T06:27:50;46.77;;;27.10;;
76708;SDS011;74360;44.410;0.216;2024-01-15T06:33:23;50.30;;;28.97;;
76708;SDS011;74360;44.410;0.216;2024-01-15T06:38:55;47.43;;;26.30;;
76708;SDS011;74360;44.410;0.216;2024-01-15T06:44:29;48.47;;;28.37;;
76708;SDS011;74360;44.410;0.216;2024-01-15T06:50:00;47.33;;;28.50;;
76708;SDS011;74360;44.410;0.216;2024-01-15T06:55:33;48.13;;;27.80;;
76708;SDS011;74360;44.410;0.216;2024-01-15T07:01:06;46.50;;;27.57;;
76708;SDS011;74360;44.410;0.216;2024-01-15T07:06:38;48.77;;;27.80;;
76708;SDS011;74360;44.410;0.216;2024-01-15T07:12:11;49.03;;;28.73;;
76708;SDS011;74360;44.410;0.216;2024-01-15T07:17:44;53.77;;;30.37;;
76708;SDS011;74360;44.410;0.216;2024-01-15T07:23:18;50.60;;;30.27;;
76708;SDS011;74360;44.410;0.216;2024-01-15T07:28:51;58.60;;;31.03;;
76708;SDS011;74360;44.410;0.216;2024-01-15T07:34:22;62.57;;;33.33;;
76708;SDS011;74360;44.410;0.216;2024-01-15T07:39:54;53.83;;;30.27;;
76708;SDS011;74360;44.410;0.216;2024-01-15T07:45:27;54.07;;;29.70;;
76708;SDS011;74360;44.410;0.216;2024-01-15T07:50:58;52.13;;;28.07;;
76708;SDS011;74360;44.410;0.216;2024-01-15T07:56:32;65.23;;;32.53;;
76708;SDS011;74360;44.410;0.216;2024-01-15T08:02:04;61.20;;;29.43;;
76708;SDS011;74360;44.410;0.216;2024-01-15T08:07:38;66.53;;;29.87;;
76708;SDS011;74360;44.410;0.216;2024-01-15T08:13:11;63.10;;;30.83;;
76708;SDS011;74360;44.410;0.216;2024-01-15T08:24:18;72.13;;;33.93;;
76708;SDS011;74360;44.410;0.216;2024-01-15T08:29:51;58.67;;;29.07;;
76708;SDS011;74360;44.410;0.216;2024-01-15T08:35:25;61.13;;;27.10;;
76708;SDS011;74360;44.410;0.216;2024-01-15T08:40:59;65.17;;;26.53;;
76708;SDS011;74360;44.410;0.216;2024-01-15T08:46:29;61.83;;;26.90;;
76708;SDS011;74360;44.410;0.216;2024-01-15T08:52:00;70.70;;;30.57;;
76708;SDS011;74360;44.410;0.216;2024-01-15T08:57:33;64.13;;;30.13;;
76708;SDS011;74360;44.410;0.216;2024-01-15T09:03:05;70.23;;;30.23;;
76708;SDS011;74360;44.410;0.216;2024-01-15T09:08:38;65.37;;;31.33;;
76708;SDS011;74360;44.410;0.216;2024-01-15T09:14:11;58.27;;;30.27;;
76708;SDS011;74360;44.410;0.216;2024-01-15T09:19:44;54.73;;;27.83;;
76708;SDS011;74360;44.410;0.216;2024-01-15T09:25:17;47.83;;;23.70;;
76708;SDS011;74360;44.410;0.216;2024-01-15T09:30:49;34.17;;;18.57;;
76708;SDS011;74360;44.410;0.216;2024-01-15T09:36:21;44.30;;;22.73;;
76708;SDS011;74360;44.410;0.216;2024-01-15T09:41:52;47.83;;;21.67;;
76708;SDS011;74360;44.410;0.216;2024-01-15T09:47:26;41.40;;;23.63;;
76708;SDS011;74360;44.410;0.216;2024-01-15T09:52:59;46.40;;;24.60;;
76708;SDS011;74360;44.410;0.216;2024-01-15T09:58:31;47.70;;;25.30;;
76708;SDS011;74360;44.410;0.216;2024-01-15T10:04:04;51.27;;;28.27;;
76708;SDS011;74360;44.410;0.216;2024-01-15T10:09:37;48.30;;;24.80;;
76708;SDS011;74360;44.410;0.216;2024-01-15T10:15:09;54.97;;;26.40;;
76708;SDS011;74360;44.410;0.216;2024-01-15T10:20:43;56.73;;;25.77;;
76708;SDS011;74360;44.410;0.216;2024-01-15T10:26:15;48.87;;;21.63;;
76708;SDS011;74360;44.410;0.216;2024-01-15T10:31:47;46.70;;;20.77;;
76708;SDS011;74360;44.410;0.216;2024-01-15T10:37:20;37.17;;;19.17;;
76708;SDS011;74360;44.410;0.216;2024-01-15T10:42:54;31.83;;;15.73;;
76708;SDS011;74360;44.410;0.216;2024-01-15T10:48:27;39.83;;;18.83;;
76708;SDS011;74360;44.410;0.216;2024-01-15T10:53:59;43.73;;;19.77;;
76708;SDS011;74360;44.410;0.216;2024-01-15T10:59:31;48.90;;;21.43;;
76708;SDS011;74360;44.410;0.216;2024-01-15T11:05:02;40.17;;;20.40;;
76708;SDS011;74360;44.410;0.216;2024-01-15T11:10:38;43.97;;;19.67;;
76708;SDS011;74360;44.410;0.216;2024-01-15T11:16:07;46.63;;;21.73;;
76708;SDS011;74360;44.410;0.216;2024-01-15T11:21:42;42.10;;;19.63;;
76708;SDS011;74360;44.410;0.216;2024-01-15T11:27:10;44.70;;;18.13;;
76708;SDS011;74360;44.410;0.216;2024-01-15T11:32:45;42.77;;;21.50;;
76708;SDS011;74360;44.410;0.216;2024-01-15T11:38:26;47.53;;;21.57;;
76708;SDS011;74360;44.410;0.216;2024-01-15T11:43:49;40.07;;;19.63;;
76708;SDS011;74360;44.410;0.216;2024-01-15T11:49:26;42.03;;;21.97;;
76708;SDS011;74360;44.410;0.216;2024-01-15T11:54:55;47.80;;;23.13;;
76708;SDS011;74360;44.410;0.216;2024-01-15T12:00:27;54.50;;;26.20;;
76708;SDS011;74360;44.410;0.216;2024-01-15T12:06:00;59.33;;;29.87;;
76708;SDS011;74360;44.410;0.216;2024-01-15T12:11:32;53.47;;;28.27;;
76708;SDS011;74360;44.410;0.216;2024-01-15T12:17:06;53.73;;;29.93;;
76708;SDS011;74360;44.410;0.216;2024-01-15T12:22:39;60.47;;;34.77;;
76708;SDS011;74360;44.410;0.216;2024-01-15T12:28:12;66.20;;;36.70;;
76708;SDS011;74360;44.410;0.216;2024-01-15T12:33:43;77.33;;;39.47;;
76708;SDS011;74360;44.410;0.216;2024-01-15T12:39:16;87.00;;;44.83;;
76708;SDS011;74360;44.410;0.216;2024-01-15T12:44:49;77.90;;;41.80;;
76708;SDS011;74360;44.410;0.216;2024-01-15T12:50:24;62.90;;;33.97;;
76708;SDS011;74360;44.410;0.216;2024-01-15T12:55:55;66.57;;;32.40;;
76708;SDS011;74360;44.410;0.216;2024-01-15T13:01:29;59.87;;;29.07;;
76708;SDS011;74360;44.410;0.216;2024-01-15T13:07:02;81.60;;;37.67;;
76708;SDS011;74360;44.410;0.216;2024-01-15T13:12:35;59.37;;;29.37;;
76708;SDS011;74360;44.410;0.216;2024-01-15T13:18:08;51.63;;;24.80;;
76708;SDS011;74360;44.410;0.216;2024-01-15T13:23:40;65.30;;;34.53;;
76708;SDS011;74360;44.410;0.216;2024-01-15T13:29:13;52.40;;;29.03;;
76708;SDS011;74360;44.410;0.216;2024-01-15T13:34:45;51.20;;;26.20;;
76708;SDS011;74360;44.410;0.216;2024-01-15T13:40:20;49.80;;;24.30;;
76708;SDS011;74360;44.410;0.216;2024-01-15T13:45:51;45.93;;;23.93;;
76708;SDS011;74360;44.410;0.216;2024-01-15T13:51:24;48.60;;;23.00;;
76708;SDS011;74360;44.410;0.216;2024-01-15T13:56:57;56.27;;;26.63;;
76708;SDS011;74360;44.410;0.216;2024-01-15T14:02:30;52.07;;;23.63;;
76708;SDS011;74360;44.410;0.216;2024-01-15T14:08:04;52.40;;;24.63;;
76708;SDS011;74360;44.410;0.216;2024-01-15T14:13:35;72.73;;;27.70;;
76708;SDS011;74360;44.410;0.216;2024-01-15T14:19:10;67.10;;;28.73;;
76708;SDS011;74360;44.410;0.216;2024-01-15T14:24:39;69.67;;;26.83;;
76708;SDS011;74360;44.410;0.216;2024-01-15T14:30:13;69.13;;;28.23;;
76708;SDS011;74360;44.410;0.216;2024-01-15T14:35:44;72.73;;;28.70;;
76708;SDS011;74360;44.410;0.216;2024-01-15T14:41:17;71.30;;;29.30;;
76708;SDS011;74360;44.410;0.216;2024-01-15T14:46:48;73.77;;;29.70;;
76708;SDS011;74360;44.410;0.216;2024-01-15T14:52:21;82.53;;;32.77;;
76708;SDS011;74360;44.410;0.216;2024-01-15T14:57:53;72.77;;;32.17;;
76708;SDS011;74360;44.410;0.216;2024-01-15T15:03:24;71.87;;;30.83;;
76708;SDS011;74360;44.410;0.216;2024-01-15T15:09:00;62.10;;;29.63;;
76708;SDS011;74360;44.410;0.216;2024-01-15T15:14:32;75.40;;;31.93;;
76708;SDS011;74360;44.410;0.216;2024-01-15T15:20:04;72.73;;;32.83;;
76708;SDS011;74360;44.410;0.216;2024-01-15T15:25:36;123.83;;;39.03;;
76708;SDS011;74360;44.410;0.216;2024-01-15T15:31:11;74.40;;;32.63;;
76708;SDS011;74360;44.410;0.216;2024-01-15T15:36:43;69.93;;;32.63;;
76708;SDS011;74360;44.410;0.216;2024-01-15T15:42:16;89.47;;;41.63;;
76708;SDS011;74360;44.410;0.216;2024-01-15T15:47:49;98.13;;;40.90;;
76708;SDS011;74360;44.410;0.216;2024-01-15T15:53:22;113.20;;;46.97;;
76708;SDS011;74360;44.410;0.216;2024-01-15T15:58:54;105.37;;;43.70;;
76708;SDS011;74360;44.410;0.216;2024-01-15T16:04:27;98.63;;;41.47;;
76708;SDS011;74360;44.410;0.216;2024-01-15T16:10:00;121.93;;;41.90;;
76708;SDS011;74360;44.410;0.216;2024-01-15T16:15:34;101.63;;;39.67;;
76708;SDS011;74360;44.410;0.216;2024-01-15T16:21:06;96.13;;;36.73;;
76708;SDS011;74360;44.410;0.216;2024-01-15T16:26:38;97.73;;;35.23;;
76708;SDS011;74360;44.410;0.216;2024-01-15T16:32:11;70.50;;;28.90;;
76708;SDS011;74360;44.410;0.216;2024-01-15T16:37:45;95.40;;;31.87;;
76708;SDS011;74360;44.410;0.216;2024-01-15T16:43:16;101.43;;;34.20;;
76708;SDS011;74360;44.410;0.216;2024-01-15T16:48:49;95.70;;;33.80;;
76708;SDS011;74360;44.410;0.216;2024-01-15T16:54:22;96.07;;;37.60;;
76708;SDS011;74360;44.410;0.216;2024-01-15T16:59:54;105.53;;;41.67;;
76708;SDS011;74360;44.410;0.216;2024-01-15T17:05:26;114.50;;;39.17;;
76708;SDS011;74360;44.410;0.216;2024-01-15T17:10:59;162.10;;;59.60;;
76708;SDS011;74360;44.410;0.216;2024-01-15T17:16:32;105.40;;;45.63;;
76708;SDS011;74360;44.410;0.216;2024-01-15T17:22:04;119.67;;;48.70;;
76708;SDS011;74360;44.410;0.216;2024-01-15T17:27:37;107.40;;;42.77;;
76708;SDS011;74360;44.410;0.216;2024-01-15T17:33:09;89.30;;;38.73;;
76708;SDS011;74360;44.410;0.216;2024-01-15T17:38:42;117.07;;;49.07;;
76708;SDS011;74360;44.410;0.216;2024-01-15T17:44:15;148.93;;;53.90;;
76708;SDS011;74360;44.410;0.216;2024-01-15T17:49:48;116.63;;;49.03;;
76708;SDS011;74360;44.410;0.216;2024-01-15T17:55:21;220.13;;;58.10;;
76708;SDS011;74360;44.410;0.216;2024-01-15T18:00:52;208.50;;;46.70;;
76708;SDS011;74360;44.410;0.216;2024-01-15T18:06:24;173.70;;;49.17;;
76708;SDS011;74360;44.410;0.216;2024-01-15T18:12:01;216.63;;;47.93;;
76708;SDS011;74360;44.410;0.216;2024-01-15T18:17:30;161.53;;;42.17;;
76708;SDS011;74360;44.410;0.216;2024-01-15T18:23:03;129.87;;;42.97;;
76708;SDS011;74360;44.410;0.216;2024-01-15T18:28:37;171.43;;;62.10;;
76708;SDS011;74360;44.410;0.216;2024-01-15T18:34:07;108.90;;;41.07;;
76708;SDS011;74360;44.410;0.216;2024-01-15T18:39:42;104.47;;;36.47;;
76708;SDS011;74360;44.410;0.216;2024-01-15T18:45:15;100.93;;;44.43;;
76708;SDS011;74360;44.410;0.216;2024-01-15T18:50:46;114.37;;;38.80;;
76708;SDS011;74360;44.410;0.216;2024-01-15T18:56:19;198.20;;;52.10;;
76708;SDS011;74360;44.410;0.216;2024-01-15T19:01:51;146.23;;;44.63;;
76708;SDS011;74360;44.410;0.216;2024-01-15T19:07:23;196.80;;;53.40;;
76708;SDS011;74360;44.410;0.216;2024-01-15T19:12:55;200.13;;;48.73;;
76708;SDS011;74360;44.410;0.216;2024-01-15T19:18:28;139.27;;;48.23;;
76708;SDS011;74360;44.410;0.216;2024-01-15T19:24:04;349.23;;;66.17;;
76708;SDS011;74360;44.410;0.216;2024-01-15T19:29:35;124.60;;;33.33;;
76708;SDS011;74360;44.410;0.216;2024-01-15T19:35:06;184.37;;;47.53;;
76708;SDS011;74360;44.410;0.216;2024-01-15T19:40:39;135.57;;;37.77;;
76708;SDS011;74360;44.410;0.216;2024-01-15T19:46:12;210.07;;;82.53;;
76708;SDS011;74360;44.410;0.216;2024-01-15T19:51:43;153.87;;;46.57;;
76708;SDS011;74360;44.410;0.216;2024-01-15T19:57:16;151.33;;;43.27;;
76708;SDS011;74360;44.410;0.216;2024-01-15T20:02:49;190.37;;;47.87;;
76708;SDS011;74360;44.410;0.216;2024-01-15T20:08:22;161.77;;;43.83;;
76708;SDS011;74360;44.410;0.216;2024-01-15T20:13:54;153.53;;;36.67;;
76708;SDS011;74360;44.410;0.216;2024-01-15T20:19:26;201.50;;;39.23;;
76708;SDS011;74360;44.410;0.216;2024-01-15T20:24:59;127.73;;;35.97;;
76708;SDS011;74360;44.410;0.216;2024-01-15T20:30:32;264.93;;;52.57;;
76708;SDS011;74360;44.410;0.216;2024-01-15T20:36:06;158.43;;;48.80;;
76708;SDS011;74360;44.410;0.216;2024-01-15T20:41:39;439.50;;;77.03;;
76708;SDS011;74360;44.410;0.216;2024-01-15T20:47:12;190.87;;;45.73;;
76708;SDS011;74360;44.410;0.216;2024-01-15T20:52:44;264.17;;;55.00;;
76708;SDS011;74360;44.410;0.216;2024-01-15T20:58:20;136.87;;;49.27;;
76708;SDS011;74360;44.410;0.216;2024-01-15T21:03:50;95.73;;;41.10;;
76708;SDS011;74360;44.410;0.216;2024-01-15T21:09:24;98.33;;;40.90;;
76708;SDS011;74360;44.410;0.216;2024-01-15T21:14:56;110.00;;;47.03;;
76708;SDS011;74360;44.410;0.216;2024-01-15T21:20:29;167.17;;;56.83;;
76708;SDS011;74360;44.410;0.216;2024-01-15T21:26:02;207.73;;;74.47;;
76708;SDS011;74360;44.410;0.216;2024-01-15T21:31:36;145.23;;;56.13;;
76708;SDS011;74360;44.410;0.216;2024-01-15T21:37:06;131.70;;;54.83;;
76708;SDS011;74360;44.410;0.216;2024-01-15T21:42:39;300.60;;;86.70;;
76708;SDS011;74360;44.410;0.216;2024-01-15T21:48:12;332.23;;;89.43;;
76708;SDS011;74360;44.410;0.216;2024-01-15T21:53:44;137.00;;;65.53;;
76708;SDS011;74360;44.410;0.216;2024-01-15T21:59:17;145.03;;;59.37;;
76708;SDS011;74360;44.410;0.216;2024-01-15T22:04:49;212.87;;;58.90;;
76708;SDS011;74360;44.410;0.216;2024-01-15T22:10:22;148.77;;;52.97;;
76708;SDS011;74360;44.410;0.216;2024-01-15T22:15:55;141.20;;;53.33;;
76708;SDS011;74360;44.410;0.216;2024-01-15T22:21:28;108.63;;;35.60;;
76708;SDS011;74360;44.410;0.216;2024-01-15T22:27:01;267.40;;;49.23;;
76708;SDS011;74360;44.410;0.216;2024-01-15T22:32:33;176.87;;;37.67;;
76708;SDS011;74360;44.410;0.216;2024-01-15T22:38:07;165.83;;;44.33;;
76708;SDS011;74360;44.410;0.216;2024-01-15T22:43:40;155.73;;;32.53;;
76708;SDS011;74360;44.410;0.216;2024-01-15T22:49:13;94.83;;;32.07;;
76708;SDS011;74360;44.410;0.216;2024-01-15T22:54:49;295.13;;;39.67;;
76708;SDS011;74360;44.410;0.216;2024-01-15T23:00:20;121.30;;;33.67;;
76708;SDS011;74360;44.410;0.216;2024-01-15T23:05:52;122.37;;;39.33;;
76708;SDS011;74360;44.410;0.216;2024-01-15T23:11:25;128.93;;;33.90;;
76708;SDS011;74360;44.410;0.216;2024-01-15T23:16:58;193.13;;;35.77;;
76708;SDS011;74360;44.410;0.216;2024-01-15T23:22:31;150.10;;;32.63;;
76708;SDS011;74360;44.410;0.216;2024-01-15T23:28:03;298.37;;;53.53;;
76708;SDS011;74360;44.410;0.216;2024-01-15T23:33:40;138.67;;;32.77;;
76708;SDS011;74360;44.410;0.216;2024-01-15T23:39:10;538.63;;;50.10;;
76708;SDS011;74360;44.410;0.216;2024-01-15T23:44:46;106.40;;;31.57;;
76708;SDS011;74360;44.410;0.216;2024-01-15T23:50:16;189.27;;;36.43;;
76708;SDS011;74360;44.410;0.216;2024-01-15T23:55:50;131.73;;;32.73;;
